sensor_id;sensor_type;location;lat;lon;timestamp;P1;durP1;ratioP1;P2;durP2;ratioP2
35693;SDS011;21812;55.536;37.664;2022-09-09T00:00:12;3.15;;;1.88;;
35693;SDS011;21812;55.536;37.664;2022-09-09T00:02:39;2.92;;;1.70;;
35693;SDS011;21812;55.536;37.664;2022-09-09T00:07:52;3.15;;;2.15;;
35693;SDS011;21812;55.536;37.664;2022-09-09T00:15:34;3.95;;;1.40;;
35693;SDS011;21812;55.536;37.664;2022-09-09T00:18:22;1.80;;;1.38;;
35693;SDS011;21812;55.536;37.664;2022-09-09T00:23:28;2.97;;;2.05;;
35693;SDS011;21812;55.536;37.664;2022-09-09T00:31:29;5.80;;;3.20;;
35693;SDS011;21812;55.536;37.664;2022-09-09T00:34:29;3.33;;;2.97;;
35693;SDS011;21812;55.536;37.664;2022-09-09T00:36:52;3.47;;;2.95;;
35693;SDS011;21812;55.536;37.664;2022-09-09T00:45:08;3.35;;;2.67;;
35693;SDS011;21812;55.536;37.664;2022-09-09T00:47:50;3.63;;;3.33;;
35693;SDS011;21812;55.536;37.664;2022-09-09T00:53:25;4.15;;;2.90;;
35693;SDS011;21812;55.536;37.664;2022-09-09T00:58:53;3.10;;;2.80;;
35693;SDS011;21812;55.536;37.664;2022-09-09T01:01:40;3.25;;;2.50;;
35693;SDS011;21812;55.536;37.664;2022-09-09T01:04:13;3.63;;;2.45;;
35693;SDS011;21812;55.536;37.664;2022-09-09T01:06:46;3.28;;;2.47;;
35693;SDS011;21812;55.536;37.664;2022-09-09T01:09:30;7.90;;;3.22;;
35693;SDS011;21812;55.536;37.664;2022-09-09T01:15:11;4.50;;;2.67;;
35693;SDS011;21812;55.536;37.664;2022-09-09T01:21:21;3.17;;;2.17;;
35693;SDS011;21812;55.536;37.664;2022-09-09T01:26:21;4.72;;;2.42;;
35693;SDS011;21812;55.536;37.664;2022-09-09T01:28:48;3.75;;;2.20;;
35693;SDS011;21812;55.536;37.664;2022-09-09T01:31:19;3.33;;;2.10;;
35693;SDS011;21812;55.536;37.664;2022-09-09T01:33:48;2.53;;;2.10;;
35693;SDS011;21812;55.536;37.664;2022-09-09T01:39:06;4.18;;;2.22;;
35693;SDS011;21812;55.536;37.664;2022-09-09T01:41:32;3.92;;;2.17;;
35693;SDS011;21812;55.536;37.664;2022-09-09T01:44:04;5.32;;;2.03;;
35693;SDS011;21812;55.536;37.664;2022-09-09T01:46:34;2.28;;;1.40;;
35693;SDS011;21812;55.536;37.664;2022-09-09T01:49:02;2.90;;;1.40;;
35693;SDS011;21812;55.536;37.664;2022-09-09T01:51:31;3.42;;;1.60;;
35693;SDS011;21812;55.536;37.664;2022-09-09T01:54:01;3.80;;;1.77;;
35693;SDS011;21812;55.536;37.664;2022-09-09T02:07:31;4.68;;;2.38;;
35693;SDS011;21812;55.536;37.664;2022-09-09T02:13:13;3.72;;;1.50;;
35693;SDS011;21812;55.536;37.664;2022-09-09T02:18:34;2.10;;;1.13;;
35693;SDS011;21812;55.536;37.664;2022-09-09T02:21:06;2.83;;;1.33;;
35693;SDS011;21812;55.536;37.664;2022-09-09T02:23:35;4.28;;;2.35;;
35693;SDS011;21812;55.536;37.664;2022-09-09T02:26:07;2.25;;;1.35;;
35693;SDS011;21812;55.536;37.664;2022-09-09T02:28:34;2.63;;;1.33;;
35693;SDS011;21812;55.536;37.664;2022-09-09T02:31:03;3.55;;;1.77;;
35693;SDS011;21812;55.536;37.664;2022-09-09T02:33:38;1.60;;;1.23;;
35693;SDS011;21812;55.536;37.664;2022-09-09T02:36:07;6.05;;;1.50;;
35693;SDS011;21812;55.536;37.664;2022-09-09T02:38:38;3.15;;;1.20;;
35693;SDS011;21812;55.536;37.664;2022-09-09T02:41:12;3.17;;;1.45;;
35693;SDS011;21812;55.536;37.664;2022-09-09T02:43:38;7.60;;;1.73;;
35693;SDS011;21812;55.536;37.664;2022-09-09T02:48:46;2.38;;;1.65;;
35693;SDS011;21812;55.536;37.664;2022-09-09T02:51:40;3.38;;;1.75;;
35693;SDS011;21812;55.536;37.664;2022-09-09T02:57:03;3.88;;;1.90;;
35693;SDS011;21812;55.536;37.664;2022-09-09T02:59:48;2.90;;;1.73;;
35693;SDS011;21812;55.536;37.664;2022-09-09T03:02:15;2.70;;;1.42;;
35693;SDS011;21812;55.536;37.664;2022-09-09T03:04:44;3.17;;;1.25;;
35693;SDS011;21812;55.536;37.664;2022-09-09T03:07:19;3.75;;;1.33;;
35693;SDS011;21812;55.536;37.664;2022-09-09T03:09:49;1.75;;;1.58;;
35693;SDS011;21812;55.536;37.664;2022-09-09T03:12:17;3.17;;;1.95;;
35693;SDS011;21812;55.536;37.664;2022-09-09T03:14:43;6.60;;;1.60;;
35693;SDS011;21812;55.536;37.664;2022-09-09T03:17:11;5.15;;;2.20;;
35693;SDS011;21812;55.536;37.664;2022-09-09T03:19:44;3.42;;;2.25;;
35693;SDS011;21812;55.536;37.664;2022-09-09T03:22:09;3.97;;;1.70;;
35693;SDS011;21812;55.536;37.664;2022-09-09T03:24:38;3.50;;;1.90;;
35693;SDS011;21812;55.536;37.664;2022-09-09T03:27:04;4.40;;;2.40;;
35693;SDS011;21812;55.536;37.664;2022-09-09T03:29:30;5.25;;;2.25;;
35693;SDS011;21812;55.536;37.664;2022-09-09T03:31:59;3.40;;;1.85;;
35693;SDS011;21812;55.536;37.664;2022-09-09T03:34:25;7.75;;;2.05;;
35693;SDS011;21812;55.536;37.664;2022-09-09T03:36:50;3.30;;;1.67;;
35693;SDS011;21812;55.536;37.664;2022-09-09T03:39:21;3.72;;;1.80;;
35693;SDS011;21812;55.536;37.664;2022-09-09T03:41:46;4.25;;;2.10;;
35693;SDS011;21812;55.536;37.664;2022-09-09T03:44:14;4.82;;;2.05;;
35693;SDS011;21812;55.536;37.664;2022-09-09T03:46:41;6.55;;;2.25;;
35693;SDS011;21812;55.536;37.664;2022-09-09T03:49:07;3.78;;;2.22;;
35693;SDS011;21812;55.536;37.664;2022-09-09T03:51:32;3.95;;;2.97;;
35693;SDS011;21812;55.536;37.664;2022-09-09T03:54:02;4.90;;;2.50;;
35693;SDS011;21812;55.536;37.664;2022-09-09T03:56:31;8.57;;;2.45;;
35693;SDS011;21812;55.536;37.664;2022-09-09T03:58:57;3.38;;;2.13;;
35693;SDS011;21812;55.536;37.664;2022-09-09T04:01:24;4.70;;;1.98;;
35693;SDS011;21812;55.536;37.664;2022-09-09T04:03:50;7.70;;;2.30;;
35693;SDS011;21812;55.536;37.664;2022-09-09T04:06:16;4.07;;;2.08;;
35693;SDS011;21812;55.536;37.664;2022-09-09T04:08:45;3.78;;;2.25;;
35693;SDS011;21812;55.536;37.664;2022-09-09T04:11:13;5.68;;;2.75;;
35693;SDS011;21812;55.536;37.664;2022-09-09T04:13:41;5.38;;;2.25;;
35693;SDS011;21812;55.536;37.664;2022-09-09T04:16:10;5.20;;;2.33;;
35693;SDS011;21812;55.536;37.664;2022-09-09T04:18:41;9.05;;;2.38;;
35693;SDS011;21812;55.536;37.664;2022-09-09T04:21:08;4.03;;;1.88;;
35693;SDS011;21812;55.536;37.664;2022-09-09T04:23:35;22.05;;;2.67;;
35693;SDS011;21812;55.536;37.664;2022-09-09T04:26:01;5.43;;;1.98;;
35693;SDS011;21812;55.536;37.664;2022-09-09T04:28:32;3.47;;;1.85;;
35693;SDS011;21812;55.536;37.664;2022-09-09T04:31:09;10.50;;;6.88;;
35693;SDS011;21812;55.536;37.664;2022-09-09T04:33:40;9.63;;;3.50;;
35693;SDS011;21812;55.536;37.664;2022-09-09T04:36:06;3.72;;;2.60;;
35693;SDS011;21812;55.536;37.664;2022-09-09T04:38:32;3.63;;;1.88;;
35693;SDS011;21812;55.536;37.664;2022-09-09T04:40:59;3.33;;;1.88;;
35693;SDS011;21812;55.536;37.664;2022-09-09T04:43:26;7.13;;;3.25;;
35693;SDS011;21812;55.536;37.664;2022-09-09T04:45:53;6.15;;;2.30;;
35693;SDS011;21812;55.536;37.664;2022-09-09T04:48:21;2.40;;;1.60;;
35693;SDS011;21812;55.536;37.664;2022-09-09T04:50:58;2.47;;;1.92;;
35693;SDS011;21812;55.536;37.664;2022-09-09T04:53:31;2.25;;;1.73;;
35693;SDS011;21812;55.536;37.664;2022-09-09T04:58:33;1.95;;;1.50;;
35693;SDS011;21812;55.536;37.664;2022-09-09T05:01:03;2.20;;;2.00;;
35693;SDS011;21812;55.536;37.664;2022-09-09T05:03:29;2.50;;;1.30;;
35693;SDS011;21812;55.536;37.664;2022-09-09T05:06:04;2.75;;;1.60;;
35693;SDS011;21812;55.536;37.664;2022-09-09T05:08:31;3.10;;;1.38;;
35693;SDS011;21812;55.536;37.664;2022-09-09T05:10:57;4.28;;;1.80;;
35693;SDS011;21812;55.536;37.664;2022-09-09T05:13:28;5.22;;;1.70;;
35693;SDS011;21812;55.536;37.664;2022-09-09T05:15:54;2.10;;;1.38;;
35693;SDS011;21812;55.536;37.664;2022-09-09T05:18:21;2.50;;;1.30;;
35693;SDS011;21812;55.536;37.664;2022-09-09T05:20:48;3.10;;;1.92;;
35693;SDS011;21812;55.536;37.664;2022-09-09T05:23:14;2.10;;;1.48;;
35693;SDS011;21812;55.536;37.664;2022-09-09T05:25:40;2.78;;;2.30;;
35693;SDS011;21812;55.536;37.664;2022-09-09T05:28:07;6.32;;;1.95;;
35693;SDS011;21812;55.536;37.664;2022-09-09T05:30:33;5.55;;;1.63;;
35693;SDS011;21812;55.536;37.664;2022-09-09T05:33:01;3.13;;;1.90;;
35693;SDS011;21812;55.536;37.664;2022-09-09T05:35:26;3.13;;;1.50;;
35693;SDS011;21812;55.536;37.664;2022-09-09T05:37:52;2.38;;;1.60;;
35693;SDS011;21812;55.536;37.664;2022-09-09T05:40:18;1.65;;;1.45;;
35693;SDS011;21812;55.536;37.664;2022-09-09T05:42:44;5.18;;;2.05;;
35693;SDS011;21812;55.536;37.664;2022-09-09T05:45:10;1.70;;;1.20;;
35693;SDS011;21812;55.536;37.664;2022-09-09T05:47:37;1.88;;;1.00;;
35693;SDS011;21812;55.536;37.664;2022-09-09T05:50:13;1.73;;;1.15;;
35693;SDS011;21812;55.536;37.664;2022-09-09T05:52:40;4.78;;;1.20;;
35693;SDS011;21812;55.536;37.664;2022-09-09T05:55:06;1.50;;;1.10;;
35693;SDS011;21812;55.536;37.664;2022-09-09T05:57:33;10.85;;;2.40;;
35693;SDS011;21812;55.536;37.664;2022-09-09T06:00:02;6.57;;;1.75;;
35693;SDS011;21812;55.536;37.664;2022-09-09T06:02:39;1.30;;;1.20;;
35693;SDS011;21812;55.536;37.664;2022-09-09T06:05:07;9.10;;;0.95;;
35693;SDS011;21812;55.536;37.664;2022-09-09T06:07:36;3.75;;;1.00;;
35693;SDS011;21812;55.536;37.664;2022-09-09T06:10:03;2.75;;;0.70;;
35693;SDS011;21812;55.536;37.664;2022-09-09T06:12:29;2.35;;;0.95;;
35693;SDS011;21812;55.536;37.664;2022-09-09T06:14:55;1.40;;;1.13;;
35693;SDS011;21812;55.536;37.664;2022-09-09T06:17:20;3.00;;;1.02;;
35693;SDS011;21812;55.536;37.664;2022-09-09T06:19:46;1.10;;;1.00;;
35693;SDS011;21812;55.536;37.664;2022-09-09T06:22:12;2.10;;;1.15;;
35693;SDS011;21812;55.536;37.664;2022-09-09T06:24:38;4.50;;;3.05;;
35693;SDS011;21812;55.536;37.664;2022-09-09T06:27:05;4.53;;;1.33;;
35693;SDS011;21812;55.536;37.664;2022-09-09T06:29:33;2.95;;;1.00;;
35693;SDS011;21812;55.536;37.664;2022-09-09T06:32:00;5.88;;;0.98;;
35693;SDS011;21812;55.536;37.664;2022-09-09T06:34:26;1.73;;;1.20;;
35693;SDS011;21812;55.536;37.664;2022-09-09T06:36:54;2.35;;;0.98;;
35693;SDS011;21812;55.536;37.664;2022-09-09T06:39:23;4.90;;;2.08;;
35693;SDS011;21812;55.536;37.664;2022-09-09T06:41:49;2.92;;;1.00;;
35693;SDS011;21812;55.536;37.664;2022-09-09T06:44:38;1.27;;;0.73;;
35693;SDS011;21812;55.536;37.664;2022-09-09T06:47:07;2.08;;;0.90;;
35693;SDS011;21812;55.536;37.664;2022-09-09T06:49:33;1.00;;;0.90;;
35693;SDS011;21812;55.536;37.664;2022-09-09T06:52:02;1.77;;;0.63;;
35693;SDS011;21812;55.536;37.664;2022-09-09T06:54:28;1.38;;;0.90;;
35693;SDS011;21812;55.536;37.664;2022-09-09T06:56:54;2.15;;;0.70;;
35693;SDS011;21812;55.536;37.664;2022-09-09T06:59:22;0.85;;;0.65;;
35693;SDS011;21812;55.536;37.664;2022-09-09T07:01:49;1.40;;;0.88;;
35693;SDS011;21812;55.536;37.664;2022-09-09T07:04:17;1.17;;;0.68;;
35693;SDS011;21812;55.536;37.664;2022-09-09T07:06:44;10.50;;;2.05;;
35693;SDS011;21812;55.536;37.664;2022-09-09T07:09:16;1.92;;;0.68;;
35693;SDS011;21812;55.536;37.664;2022-09-09T07:11:48;3.42;;;1.33;;
35693;SDS011;21812;55.536;37.664;2022-09-09T07:14:18;1.55;;;0.40;;
35693;SDS011;21812;55.536;37.664;2022-09-09T07:16:47;0.90;;;0.63;;
35693;SDS011;21812;55.536;37.664;2022-09-09T07:19:15;1.60;;;0.75;;
35693;SDS011;21812;55.536;37.664;2022-09-09T07:21:42;1.17;;;0.70;;
35693;SDS011;21812;55.536;37.664;2022-09-09T07:24:11;2.42;;;1.15;;
35693;SDS011;21812;55.536;37.664;2022-09-09T07:26:39;2.00;;;1.00;;
35693;SDS011;21812;55.536;37.664;2022-09-09T07:29:06;2.22;;;1.13;;
35693;SDS011;21812;55.536;37.664;2022-09-09T07:31:33;1.23;;;0.68;;
35693;SDS011;21812;55.536;37.664;2022-09-09T07:34:03;5.55;;;2.28;;
35693;SDS011;21812;55.536;37.664;2022-09-09T07:36:30;3.92;;;2.42;;
35693;SDS011;21812;55.536;37.664;2022-09-09T07:39:03;7.40;;;2.58;;
35693;SDS011;21812;55.536;37.664;2022-09-09T07:41:33;1.55;;;1.42;;
35693;SDS011;21812;55.536;37.664;2022-09-09T07:44:03;1.90;;;1.40;;
35693;SDS011;21812;55.536;37.664;2022-09-09T07:46:32;23.58;;;6.35;;
35693;SDS011;21812;55.536;37.664;2022-09-09T07:49:00;99.97;;;21.52;;
35693;SDS011;21812;55.536;37.664;2022-09-09T07:51:33;59.55;;;15.25;;
35693;SDS011;21812;55.536;37.664;2022-09-09T07:54:02;34.67;;;7.65;;
35693;SDS011;21812;55.536;37.664;2022-09-09T07:56:31;18.70;;;4.30;;
35693;SDS011;21812;55.536;37.664;2022-09-09T07:58:59;2.53;;;1.92;;
35693;SDS011;21812;55.536;37.664;2022-09-09T08:01:26;4.45;;;1.83;;
35693;SDS011;21812;55.536;37.664;2022-09-09T08:03:54;5.78;;;2.17;;
35693;SDS011;21812;55.536;37.664;2022-09-09T08:06:20;2.97;;;1.60;;
35693;SDS011;21812;55.536;37.664;2022-09-09T08:08:49;2.55;;;2.08;;
35693;SDS011;21812;55.536;37.664;2022-09-09T08:11:16;1.85;;;1.10;;
35693;SDS011;21812;55.536;37.664;2022-09-09T08:13:49;1.55;;;0.68;;
35693;SDS011;21812;55.536;37.664;2022-09-09T08:16:17;1.65;;;1.13;;
35693;SDS011;21812;55.536;37.664;2022-09-09T08:18:47;1.00;;;0.90;;
35693;SDS011;21812;55.536;37.664;2022-09-09T08:21:16;1.05;;;0.60;;
35693;SDS011;21812;55.536;37.664;2022-09-09T08:23:45;3.00;;;0.80;;
35693;SDS011;21812;55.536;37.664;2022-09-09T08:28:48;2.38;;;0.73;;
35693;SDS011;21812;55.536;37.664;2022-09-09T08:31:27;0.63;;;0.55;;
35693;SDS011;21812;55.536;37.664;2022-09-09T08:33:56;0.73;;;0.60;;
35693;SDS011;21812;55.536;37.664;2022-09-09T08:36:26;1.80;;;0.77;;
35693;SDS011;21812;55.536;37.664;2022-09-09T08:38:55;0.52;;;0.52;;
35693;SDS011;21812;55.536;37.664;2022-09-09T08:49:26;1.73;;;0.80;;
35693;SDS011;21812;55.536;37.664;2022-09-09T08:52:01;0.55;;;0.40;;
35693;SDS011;21812;55.536;37.664;2022-09-09T08:54:32;1.83;;;0.70;;
35693;SDS011;21812;55.536;37.664;2022-09-09T08:57:02;1.67;;;1.10;;
35693;SDS011;21812;55.536;37.664;2022-09-09T08:59:35;2.22;;;0.90;;
35693;SDS011;21812;55.536;37.664;2022-09-09T09:02:16;0.77;;;0.77;;
35693;SDS011;21812;55.536;37.664;2022-09-09T09:12:45;2.88;;;0.77;;
35693;SDS011;21812;55.536;37.664;2022-09-09T09:15:19;1.52;;;0.73;;
35693;SDS011;21812;55.536;37.664;2022-09-09T09:17:50;1.40;;;0.70;;
35693;SDS011;21812;55.536;37.664;2022-09-09T09:20:18;3.35;;;0.80;;
35693;SDS011;21812;55.536;37.664;2022-09-09T09:22:52;4.00;;;0.90;;
35693;SDS011;21812;55.536;37.664;2022-09-09T09:25:23;2.17;;;0.70;;
35693;SDS011;21812;55.536;37.664;2022-09-09T09:30:39;2.00;;;0.70;;
35693;SDS011;21812;55.536;37.664;2022-09-09T09:33:15;1.13;;;0.70;;
35693;SDS011;21812;55.536;37.664;2022-09-09T09:35:49;1.70;;;0.80;;
35693;SDS011;21812;55.536;37.664;2022-09-09T09:40:50;1.25;;;0.63;;
35693;SDS011;21812;55.536;37.664;2022-09-09T09:43:33;1.95;;;1.13;;
35693;SDS011;21812;55.536;37.664;2022-09-09T09:46:04;2.28;;;0.60;;
35693;SDS011;21812;55.536;37.664;2022-09-09T09:48:30;3.65;;;0.88;;
35693;SDS011;21812;55.536;37.664;2022-09-09T09:51:02;2.28;;;1.02;;
35693;SDS011;21812;55.536;37.664;2022-09-09T09:53:38;6.05;;;1.20;;
35693;SDS011;21812;55.536;37.664;2022-09-09T09:56:06;2.70;;;1.20;;
35693;SDS011;21812;55.536;37.664;2022-09-09T09:58:56;3.33;;;1.02;;
35693;SDS011;21812;55.536;37.664;2022-09-09T10:01:29;3.87;;;1.13;;
35693;SDS011;21812;55.536;37.664;2022-09-09T10:06:39;4.70;;;1.15;;
35693;SDS011;21812;55.536;37.664;2022-09-09T10:14:37;5.10;;;1.10;;
35693;SDS011;21812;55.536;37.664;2022-09-09T10:20:12;3.25;;;0.98;;
35693;SDS011;21812;55.536;37.664;2022-09-09T10:22:51;3.10;;;0.77;;
35693;SDS011;21812;55.536;37.664;2022-09-09T10:28:10;3.97;;;1.05;;
35693;SDS011;21812;55.536;37.664;2022-09-09T10:31:03;2.38;;;0.77;;
35693;SDS011;21812;55.536;37.664;2022-09-09T10:36:31;1.92;;;0.80;;
35693;SDS011;21812;55.536;37.664;2022-09-09T10:47:47;2.33;;;0.40;;
35693;SDS011;21812;55.536;37.664;2022-09-09T10:53:28;1.40;;;0.60;;
35693;SDS011;21812;55.536;37.664;2022-09-09T10:56:11;1.65;;;0.82;;
35693;SDS011;21812;55.536;37.664;2022-09-09T10:59:26;1.73;;;0.90;;
35693;SDS011;21812;55.536;37.664;2022-09-09T11:01:57;1.88;;;0.90;;
35693;SDS011;21812;55.536;37.664;2022-09-09T11:04:35;1.63;;;0.95;;
35693;SDS011;21812;55.536;37.664;2022-09-09T11:07:10;2.50;;;0.75;;
35693;SDS011;21812;55.536;37.664;2022-09-09T11:09:45;1.10;;;0.60;;
35693;SDS011;21812;55.536;37.664;2022-09-09T11:12:18;4.80;;;1.02;;
35693;SDS011;21812;55.536;37.664;2022-09-09T11:14:47;1.55;;;1.10;;
35693;SDS011;21812;55.536;37.664;2022-09-09T11:20:01;3.00;;;1.38;;
35693;SDS011;21812;55.536;37.664;2022-09-09T11:22:31;2.60;;;1.33;;
35693;SDS011;21812;55.536;37.664;2022-09-09T11:30:45;3.58;;;0.88;;
35693;SDS011;21812;55.536;37.664;2022-09-09T11:33:34;3.00;;;0.80;;
35693;SDS011;21812;55.536;37.664;2022-09-09T11:36:51;1.02;;;0.65;;
35693;SDS011;21812;55.536;37.664;2022-09-09T11:41:50;1.13;;;0.70;;
35693;SDS011;21812;55.536;37.664;2022-09-09T11:44:28;3.05;;;1.23;;
35693;SDS011;21812;55.536;37.664;2022-09-09T11:46:56;4.10;;;1.30;;
35693;SDS011;21812;55.536;37.664;2022-09-09T11:49:25;1.05;;;0.70;;
35693;SDS011;21812;55.536;37.664;2022-09-09T11:52:39;0.85;;;0.70;;
35693;SDS011;21812;55.536;37.664;2022-09-09T11:55:37;5.03;;;1.35;;
35693;SDS011;21812;55.536;37.664;2022-09-09T12:00:41;3.10;;;1.10;;
35693;SDS011;21812;55.536;37.664;2022-09-09T12:06:09;2.45;;;0.98;;
35693;SDS011;21812;55.536;37.664;2022-09-09T12:08:41;4.20;;;1.10;;
35693;SDS011;21812;55.536;37.664;2022-09-09T12:11:10;2.20;;;1.10;;
35693;SDS011;21812;55.536;37.664;2022-09-09T12:13:36;2.47;;;1.02;;
35693;SDS011;21812;55.536;37.664;2022-09-09T12:16:03;4.80;;;1.50;;
35693;SDS011;21812;55.536;37.664;2022-09-09T12:18:39;5.18;;;1.90;;
35693;SDS011;21812;55.536;37.664;2022-09-09T12:21:19;4.68;;;1.23;;
35693;SDS011;21812;55.536;37.664;2022-09-09T12:26:40;4.35;;;1.08;;
35693;SDS011;21812;55.536;37.664;2022-09-09T12:29:21;18.10;;;2.42;;
35693;SDS011;21812;55.536;37.664;2022-09-09T12:32:07;5.18;;;1.40;;
35693;SDS011;21812;55.536;37.664;2022-09-09T12:42:48;1.17;;;0.80;;
35693;SDS011;21812;55.536;37.664;2022-09-09T12:45:19;11.07;;;5.72;;
35693;SDS011;21812;55.536;37.664;2022-09-09T12:50:22;3.25;;;1.23;;
35693;SDS011;21812;55.536;37.664;2022-09-09T12:52:54;4.03;;;1.40;;
35693;SDS011;21812;55.536;37.664;2022-09-09T12:55:30;4.65;;;1.40;;
35693;SDS011;21812;55.536;37.664;2022-09-09T12:57:58;4.00;;;1.40;;
35693;SDS011;21812;55.536;37.664;2022-09-09T13:00:26;2.72;;;1.20;;
35693;SDS011;21812;55.536;37.664;2022-09-09T13:02:54;1.60;;;1.10;;
35693;SDS011;21812;55.536;37.664;2022-09-09T13:05:37;1.50;;;0.85;;
35693;SDS011;21812;55.536;37.664;2022-09-09T13:08:10;2.88;;;1.15;;
35693;SDS011;21812;55.536;37.664;2022-09-09T13:10:39;2.08;;;1.15;;
35693;SDS011;21812;55.536;37.664;2022-09-09T13:13:19;5.13;;;1.50;;
35693;SDS011;21812;55.536;37.664;2022-09-09T13:15:52;3.13;;;1.38;;
35693;SDS011;21812;55.536;37.664;2022-09-09T13:18:22;5.13;;;1.40;;
35693;SDS011;21812;55.536;37.664;2022-09-09T13:20:49;4.43;;;1.25;;
35693;SDS011;21812;55.536;37.664;2022-09-09T13:23:19;4.22;;;1.90;;
35693;SDS011;21812;55.536;37.664;2022-09-09T13:25:59;3.78;;;1.85;;
35693;SDS011;21812;55.536;37.664;2022-09-09T13:28:27;4.55;;;1.30;;
35693;SDS011;21812;55.536;37.664;2022-09-09T13:31:04;1.52;;;1.00;;
35693;SDS011;21812;55.536;37.664;2022-09-09T13:33:44;4.30;;;1.90;;
35693;SDS011;21812;55.536;37.664;2022-09-09T13:36:10;5.07;;;1.40;;
35693;SDS011;21812;55.536;37.664;2022-09-09T13:41:20;4.03;;;1.90;;
35693;SDS011;21812;55.536;37.664;2022-09-09T13:43:49;4.40;;;2.30;;
35693;SDS011;21812;55.536;37.664;2022-09-09T13:46:36;3.47;;;1.42;;
35693;SDS011;21812;55.536;37.664;2022-09-09T13:49:18;0.75;;;0.55;;
35693;SDS011;21812;55.536;37.664;2022-09-09T13:54:14;4.65;;;1.27;;
35693;SDS011;21812;55.536;37.664;2022-09-09T13:56:42;3.20;;;1.27;;
35693;SDS011;21812;55.536;37.664;2022-09-09T13:59:12;6.40;;;1.40;;
35693;SDS011;21812;55.536;37.664;2022-09-09T14:01:39;5.90;;;1.45;;
35693;SDS011;21812;55.536;37.664;2022-09-09T14:04:05;3.25;;;1.50;;
35693;SDS011;21812;55.536;37.664;2022-09-09T14:06:31;7.43;;;1.38;;
35693;SDS011;21812;55.536;37.664;2022-09-09T14:09:00;5.82;;;1.52;;
35693;SDS011;21812;55.536;37.664;2022-09-09T14:11:26;2.67;;;1.08;;
35693;SDS011;21812;55.536;37.664;2022-09-09T14:13:51;4.00;;;1.85;;
35693;SDS011;21812;55.536;37.664;2022-09-09T14:16:17;2.47;;;1.27;;
35693;SDS011;21812;55.536;37.664;2022-09-09T14:18:43;3.13;;;1.20;;
35693;SDS011;21812;55.536;37.664;2022-09-09T14:21:10;7.82;;;2.10;;
35693;SDS011;21812;55.536;37.664;2022-09-09T14:23:36;3.03;;;0.93;;
35693;SDS011;21812;55.536;37.664;2022-09-09T14:26:04;3.25;;;2.03;;
35693;SDS011;21812;55.536;37.664;2022-09-09T14:28:31;3.10;;;2.45;;
35693;SDS011;21812;55.536;37.664;2022-09-09T14:31:02;5.90;;;2.00;;
35693;SDS011;21812;55.536;37.664;2022-09-09T14:33:29;2.72;;;1.17;;
35693;SDS011;21812;55.536;37.664;2022-09-09T14:35:56;6.53;;;2.10;;
35693;SDS011;21812;55.536;37.664;2022-09-09T14:38:22;2.40;;;0.80;;
35693;SDS011;21812;55.536;37.664;2022-09-09T14:40:48;1.52;;;0.80;;
35693;SDS011;21812;55.536;37.664;2022-09-09T14:43:14;5.35;;;1.02;;
35693;SDS011;21812;55.536;37.664;2022-09-09T14:45:40;6.82;;;1.52;;
35693;SDS011;21812;55.536;37.664;2022-09-09T14:48:05;5.43;;;2.10;;
35693;SDS011;21812;55.536;37.664;2022-09-09T14:50:31;6.15;;;2.60;;
35693;SDS011;21812;55.536;37.664;2022-09-09T14:52:57;18.02;;;3.30;;
35693;SDS011;21812;55.536;37.664;2022-09-09T14:55:22;15.90;;;2.85;;
35693;SDS011;21812;55.536;37.664;2022-09-09T14:57:49;22.67;;;3.47;;
35693;SDS011;21812;55.536;37.664;2022-09-09T15:00:17;10.85;;;2.00;;
35693;SDS011;21812;55.536;37.664;2022-09-09T15:02:43;12.45;;;2.75;;
35693;SDS011;21812;55.536;37.664;2022-09-09T15:05:09;9.52;;;2.50;;
35693;SDS011;21812;55.536;37.664;2022-09-09T15:07:35;5.80;;;3.50;;
35693;SDS011;21812;55.536;37.664;2022-09-09T15:10:01;7.97;;;3.45;;
35693;SDS011;21812;55.536;37.664;2022-09-09T15:12:29;5.60;;;2.47;;
35693;SDS011;21812;55.536;37.664;2022-09-09T15:14:55;3.78;;;1.73;;
35693;SDS011;21812;55.536;37.664;2022-09-09T15:17:21;4.38;;;1.60;;
35693;SDS011;21812;55.536;37.664;2022-09-09T15:19:49;4.63;;;2.10;;
35693;SDS011;21812;55.536;37.664;2022-09-09T15:22:15;2.95;;;1.48;;
35693;SDS011;21812;55.536;37.664;2022-09-09T15:24:41;3.25;;;1.50;;
35693;SDS011;21812;55.536;37.664;2022-09-09T15:27:06;7.30;;;1.65;;
35693;SDS011;21812;55.536;37.664;2022-09-09T15:29:34;9.07;;;1.92;;
35693;SDS011;21812;55.536;37.664;2022-09-09T15:32:00;4.95;;;2.60;;
35693;SDS011;21812;55.536;37.664;2022-09-09T15:34:25;8.60;;;3.90;;
35693;SDS011;21812;55.536;37.664;2022-09-09T15:36:51;8.85;;;5.38;;
35693;SDS011;21812;55.536;37.664;2022-09-09T15:39:17;7.38;;;3.00;;
35693;SDS011;21812;55.536;37.664;2022-09-09T15:41:44;8.55;;;2.92;;
35693;SDS011;21812;55.536;37.664;2022-09-09T15:44:11;11.95;;;3.28;;
35693;SDS011;21812;55.536;37.664;2022-09-09T15:46:41;10.10;;;2.88;;
35693;SDS011;21812;55.536;37.664;2022-09-09T15:49:09;5.20;;;2.28;;
35693;SDS011;21812;55.536;37.664;2022-09-09T15:51:47;6.55;;;2.28;;
35693;SDS011;21812;55.536;37.664;2022-09-09T15:54:17;5.70;;;2.25;;
35693;SDS011;21812;55.536;37.664;2022-09-09T15:56:45;6.18;;;2.10;;
35693;SDS011;21812;55.536;37.664;2022-09-09T15:59:15;4.97;;;2.63;;
35693;SDS011;21812;55.536;37.664;2022-09-09T16:01:41;4.18;;;2.40;;
35693;SDS011;21812;55.536;37.664;2022-09-09T16:04:08;6.20;;;2.58;;
35693;SDS011;21812;55.536;37.664;2022-09-09T16:06:33;9.10;;;5.60;;
35693;SDS011;21812;55.536;37.664;2022-09-09T16:08:59;11.10;;;6.03;;
35693;SDS011;21812;55.536;37.664;2022-09-09T16:11:28;12.18;;;5.93;;
35693;SDS011;21812;55.536;37.664;2022-09-09T16:13:56;11.45;;;5.68;;
35693;SDS011;21812;55.536;37.664;2022-09-09T16:16:23;9.25;;;5.63;;
35693;SDS011;21812;55.536;37.664;2022-09-09T16:18:52;7.20;;;4.78;;
35693;SDS011;21812;55.536;37.664;2022-09-09T16:21:21;7.70;;;4.72;;
35693;SDS011;21812;55.536;37.664;2022-09-09T16:23:54;7.30;;;4.15;;
35693;SDS011;21812;55.536;37.664;2022-09-09T16:26:21;5.00;;;2.95;;
35693;SDS011;21812;55.536;37.664;2022-09-09T16:28:48;8.55;;;3.55;;
35693;SDS011;21812;55.536;37.664;2022-09-09T16:31:15;4.78;;;3.08;;
35693;SDS011;21812;55.536;37.664;2022-09-09T16:33:45;6.25;;;3.22;;
35693;SDS011;21812;55.536;37.664;2022-09-09T16:36:12;7.60;;;4.00;;
35693;SDS011;21812;55.536;37.664;2022-09-09T16:38:40;8.48;;;4.32;;
35693;SDS011;21812;55.536;37.664;2022-09-09T16:41:06;9.82;;;3.35;;
35693;SDS011;21812;55.536;37.664;2022-09-09T16:43:33;6.53;;;3.95;;
35693;SDS011;21812;55.536;37.664;2022-09-09T16:46:00;7.65;;;4.05;;
35693;SDS011;21812;55.536;37.664;2022-09-09T16:48:26;9.77;;;4.18;;
35693;SDS011;21812;55.536;37.664;2022-09-09T16:51:06;8.25;;;4.47;;
35693;SDS011;21812;55.536;37.664;2022-09-09T16:53:34;7.50;;;4.25;;
35693;SDS011;21812;55.536;37.664;2022-09-09T16:56:06;10.43;;;5.35;;
35693;SDS011;21812;55.536;37.664;2022-09-09T16:58:33;8.13;;;4.65;;
35693;SDS011;21812;55.536;37.664;2022-09-09T17:01:00;8.20;;;5.55;;
35693;SDS011;21812;55.536;37.664;2022-09-09T17:03:28;10.10;;;6.60;;
35693;SDS011;21812;55.536;37.664;2022-09-09T17:05:55;11.98;;;7.85;;
35693;SDS011;21812;55.536;37.664;2022-09-09T17:08:23;11.10;;;6.93;;
35693;SDS011;21812;55.536;37.664;2022-09-09T17:10:49;17.25;;;5.82;;
35693;SDS011;21812;55.536;37.664;2022-09-09T17:13:15;9.85;;;6.72;;
35693;SDS011;21812;55.536;37.664;2022-09-09T17:15:44;12.52;;;6.22;;
35693;SDS011;21812;55.536;37.664;2022-09-09T17:18:11;6.88;;;4.38;;
35693;SDS011;21812;55.536;37.664;2022-09-09T17:20:40;8.50;;;4.90;;
35693;SDS011;21812;55.536;37.664;2022-09-09T17:23:07;6.80;;;4.90;;